createdAt,value
2019-03-29T00:00:10.091Z,78.40
2019-03-29T00:05:13.547Z,78.70
2019-03-29T00:10:18.368Z,78.90
2019-03-29T00:15:22.718Z,79.90
2019-03-29T00:20:28.047Z,79.40
2019-03-29T00:25:33.116Z,80.50
2019-03-29T00:30:37.705Z,81.80
2019-03-29T00:35:42.771Z,81.00
2019-03-29T00:40:47.477Z,81.40
2019-03-29T00:45:50.747Z,81.30
2019-03-29T00:50:55.092Z,82.00
2019-03-29T00:56:00.286Z,82.90
2019-03-29T01:01:05.018Z,83.80
2019-03-29T01:06:09.728Z,82.50
2019-03-29T01:11:13.193Z,83.40
2019-03-29T01:16:17.889Z,83.80
2019-03-29T01:21:21.221Z,83.60
2019-03-29T01:26:27.038Z,84.80
2019-03-29T01:31:33.435Z,87.50
2019-03-29T01:36:40.539Z,90.30
2019-03-29T01:41:44.892Z,86.40
2019-03-29T01:46:49.756Z,88.50
2019-03-29T01:51:54.385Z,85.50
2019-03-29T01:56:57.681Z,89.00
2019-03-29T02:02:02.297Z,90.30
2019-03-29T02:07:05.559Z,88.40
2019-03-29T02:12:10.110Z,85.90
2019-03-29T02:17:13.280Z,85.40
2019-03-29T02:22:17.626Z,86.00
2019-03-29T02:27:23.257Z,85.30
2019-03-29T02:32:29.736Z,89.90
2019-03-29T02:37:34.196Z,87.30
2019-03-29T02:42:38.688Z,86.60
2019-03-29T02:47:43.105Z,91.00
2019-03-29T02:52:47.536Z,90.20
2019-03-29T02:57:52.091Z,88.40
2019-03-29T03:02:56.831Z,86.30
2019-03-29T03:08:01.215Z,86.30
2019-03-29T03:13:05.748Z,87.20
2019-03-29T03:18:10.023Z,91.80
2019-03-29T03:23:17.586Z,91.00
2019-03-29T03:28:22.294Z,90.40
2019-03-29T03:33:27.231Z,88.90
2019-03-29T03:38:31.759Z,89.70
2019-03-29T03:43:36.126Z,92.40
2019-03-29T03:48:40.426Z,88.90
2019-03-29T03:53:45.103Z,88.90
2019-03-29T03:58:49.745Z,87.30
2019-03-29T04:03:54.059Z,87.80
2019-03-29T04:08:58.684Z,89.60
2019-03-29T04:14:03.595Z,87.30
2019-03-29T04:19:07.960Z,87.20
2019-03-29T04:24:12.916Z,87.20
2019-03-29T04:29:17.261Z,87.40
2019-03-29T04:34:21.587Z,87.30
2019-03-29T04:39:25.950Z,88.00
2019-03-29T04:44:31.850Z,91.00
2019-03-29T04:49:38.548Z,90.00
2019-03-29T04:54:44.029Z,90.30
2019-03-29T04:59:48.331Z,89.60
2019-03-29T05:04:52.746Z,88.10
2019-03-29T05:09:57.351Z,87.40
2019-03-29T05:15:02.255Z,87.50
2019-03-29T05:20:07.664Z,87.60
2019-03-29T05:25:11.977Z,87.40
2019-03-29T05:30:16.290Z,87.70
2019-03-29T05:35:20.926Z,87.30
2019-03-29T05:40:34.885Z,87.30
2019-03-29T05:45:31.848Z,90.20
2019-03-29T05:50:37.048Z,90.00
2019-03-29T05:55:41.896Z,88.50
2019-03-29T06:00:46.413Z,87.20
2019-03-29T06:05:49.622Z,87.50
2019-03-29T06:10:53.941Z,85.10
2019-03-29T06:15:58.256Z,82.60
2019-03-29T06:21:03.097Z,79.60
2019-03-29T06:26:07.478Z,77.00
2019-03-29T06:31:11.828Z,74.70
2019-03-29T06:36:16.193Z,73.20
2019-03-29T06:41:23.381Z,71.90
2019-03-29T06:46:27.795Z,70.40
2019-03-29T06:51:32.208Z,66.10
2019-03-29T06:56:38.359Z,62.70
2019-03-29T07:01:42.819Z,64.80
2019-03-29T07:06:47.464Z,63.90
2019-03-29T07:11:52.457Z,61.30
2019-03-29T07:16:57.355Z,60.30
2019-03-29T07:22:02.312Z,59.20
2019-03-29T07:27:06.778Z,58.20
2019-03-29T07:32:12.135Z,55.60
2019-03-29T07:37:16.520Z,54.00
2019-03-29T07:42:21.353Z,50.40
2019-03-29T07:47:26.647Z,50.90
2019-03-29T07:52:31.253Z,49.70
2019-03-29T07:57:35.691Z,49.50
2019-03-29T08:02:40.543Z,48.80
2019-03-29T08:07:44.887Z,48.30
2019-03-29T08:12:49.802Z,46.00
2019-03-29T08:17:54.245Z,44.70
2019-03-29T08:22:58.691Z,45.00
2019-03-29T08:28:03.245Z,44.30
2019-03-29T08:33:08.384Z,44.10
2019-03-29T08:38:13.766Z,46.60
2019-03-29T08:43:18.075Z,44.10
2019-03-29T08:48:23.545Z,44.80
2019-03-29T08:53:28.186Z,46.60
2019-03-29T08:58:33.103Z,42.60
2019-03-29T09:03:37.407Z,42.90
2019-03-29T09:08:41.955Z,41.70
2019-03-29T09:13:46.597Z,45.40
2019-03-29T09:18:51.679Z,43.20
2019-03-29T09:23:56.082Z,39.10
2019-03-29T09:29:00.653Z,43.00
2019-03-29T09:34:04.945Z,42.90
2019-03-29T09:39:09.666Z,39.80
2019-03-29T09:44:14.026Z,42.10
2019-03-29T09:49:18.403Z,41.30
2019-03-29T09:54:24.476Z,43.30
2019-03-29T09:59:28.778Z,45.10
2019-03-29T10:04:33.182Z,42.10
2019-03-29T10:09:37.450Z,40.90
2019-03-29T10:14:42.228Z,42.20
2019-03-29T10:19:45.467Z,40.30
2019-03-29T10:24:51.034Z,40.80
2019-03-29T10:29:55.421Z,42.20
2019-03-29T10:34:59.758Z,43.90
2019-03-29T10:40:04.278Z,41.30
2019-03-29T10:45:09.313Z,42.00
2019-03-29T10:50:14.478Z,44.70
2019-03-29T10:55:18.799Z,39.40
2019-03-29T11:00:40.404Z,41.20
2019-03-29T11:05:44.811Z,46.70
2019-03-29T11:10:50.412Z,46.00
2019-03-29T11:15:54.791Z,46.10
2019-03-29T11:20:59.656Z,46.00
2019-03-29T11:26:04.353Z,45.00
2019-03-29T11:31:07.812Z,40.50
2019-03-29T11:36:14.571Z,42.30
2019-03-29T11:41:18.905Z,45.70
2019-03-29T11:46:26.673Z,47.40
2019-03-29T11:51:34.831Z,45.40
2019-03-29T11:56:39.253Z,45.00
2019-03-29T12:01:44.385Z,45.00
2019-03-29T12:06:49.181Z,44.70
2019-03-29T12:11:53.816Z,47.00
2019-03-29T12:16:58.408Z,44.50
2019-03-29T12:22:02.681Z,46.50
2019-03-29T12:27:07.685Z,47.10
2019-03-29T12:32:12.190Z,45.70
2019-03-29T12:37:19.503Z,50.00
2019-03-29T12:42:24.897Z,51.40
2019-03-29T12:47:29.196Z,52.70
2019-03-29T12:52:33.542Z,54.10
2019-03-29T12:57:39.075Z,54.30
2019-03-29T13:02:49.350Z,53.70
2019-03-29T13:07:53.892Z,55.00
2019-03-29T13:13:00.752Z,55.40
2019-03-29T13:18:13.357Z,55.70
2019-03-29T13:23:17.716Z,55.20
2019-03-29T13:28:22.267Z,52.90
2019-03-29T13:33:26.744Z,55.30
2019-03-29T13:38:31.102Z,54.40
2019-03-29T13:43:35.683Z,55.70
2019-03-29T13:48:40.209Z,55.50
2019-03-29T13:53:44.570Z,55.60
2019-03-29T13:58:49.803Z,55.70
2019-03-29T14:03:55.960Z,56.60
2019-03-29T14:09:01.877Z,54.00
2019-03-29T14:14:10.306Z,54.00
2019-03-29T14:19:19.791Z,55.20
2019-03-29T14:24:25.835Z,52.90
2019-03-29T14:29:31.535Z,54.40
2019-03-29T14:34:42.712Z,57.10
2019-03-29T14:39:51.448Z,55.50
2019-03-29T14:44:57.986Z,55.20
2019-03-29T14:50:06.990Z,55.80
2019-03-29T14:55:15.151Z,56.30
2019-03-29T15:00:42.761Z,54.70
2019-03-29T15:05:47.179Z,55.20
2019-03-29T15:10:51.536Z,55.80
2019-03-29T15:15:55.915Z,57.60
2019-03-29T15:21:03.325Z,57.40
2019-03-29T15:26:08.022Z,54.70
2019-03-29T15:31:11.554Z,54.00
2019-03-29T15:36:19.876Z,57.00
2019-03-29T15:41:24.244Z,55.70
2019-03-29T15:46:28.690Z,57.00
2019-03-29T15:51:33.043Z,57.60
2019-03-29T15:56:37.745Z,56.50
2019-03-29T16:01:45.070Z,56.00
2019-03-29T16:06:53.501Z,56.00
2019-03-29T16:12:02.450Z,55.80
2019-03-29T16:17:07.179Z,57.40
2019-03-29T16:22:12.823Z,57.30
2019-03-29T16:27:16.354Z,57.40
2019-03-29T16:32:20.746Z,57.60
2019-03-29T16:37:27.289Z,57.60
2019-03-29T16:42:33.215Z,57.50
2019-03-29T16:47:37.888Z,57.90
2019-03-29T16:52:41.927Z,58.40
2019-03-29T16:57:46.402Z,58.30
2019-03-29T17:02:52.338Z,58.80
2019-03-29T17:07:58.447Z,59.90
2019-03-29T17:13:02.838Z,59.90
2019-03-29T17:18:07.294Z,59.90
2019-03-29T17:23:11.707Z,60.10
2019-03-29T17:28:16.154Z,60.20
2019-03-29T17:33:22.374Z,61.00
2019-03-29T17:38:26.746Z,61.40
2019-03-29T17:43:31.176Z,61.90
2019-03-29T17:48:35.516Z,62.60
2019-03-29T17:53:40.239Z,63.70
2019-03-29T17:58:43.810Z,64.30
2019-03-29T18:03:48.503Z,65.10
2019-03-29T18:08:52.891Z,66.00
2019-03-29T18:13:58.104Z,66.70
2019-03-29T18:19:02.683Z,67.40
2019-03-29T18:24:08.812Z,68.10
2019-03-29T18:29:13.171Z,69.50
2019-03-29T18:34:17.491Z,72.10
2019-03-29T18:39:21.816Z,72.00
2019-03-29T18:44:26.128Z,71.50
2019-03-29T18:49:30.762Z,72.30
2019-03-29T18:54:35.030Z,74.60
2019-03-29T18:59:40.580Z,74.00
2019-03-29T19:04:44.869Z,75.00
2019-03-29T19:09:49.455Z,76.70
2019-03-29T19:14:55.313Z,76.30
2019-03-29T19:20:01.015Z,77.00
2019-03-29T19:25:07.380Z,76.10
2019-03-29T19:30:11.923Z,75.30
2019-03-29T19:35:16.339Z,76.10
2019-03-29T19:40:20.926Z,75.80
2019-03-29T19:45:47.992Z,75.90
2019-03-29T19:50:52.667Z,76.50
2019-03-29T19:55:56.013Z,77.40
2019-03-29T20:01:02.452Z,79.20
2019-03-29T20:06:06.567Z,77.60
2019-03-29T20:11:10.914Z,78.00
2019-03-29T20:16:16.923Z,80.10
2019-03-29T20:21:21.373Z,80.70
2019-03-29T20:26:29.086Z,81.60
2019-03-29T20:31:33.630Z,81.10
2019-03-29T20:36:48.806Z,80.00
2019-03-29T20:41:53.131Z,80.40
2019-03-29T20:46:57.483Z,80.90
2019-03-29T20:52:06.960Z,81.80
2019-03-29T20:57:11.283Z,80.80
2019-03-29T21:02:15.808Z,87.70
2019-03-29T21:07:20.633Z,83.90
2019-03-29T21:12:25.006Z,85.00
2019-03-29T21:17:29.376Z,83.00
2019-03-29T21:22:33.796Z,85.20
2019-03-29T21:27:38.908Z,83.30
2019-03-29T21:32:43.252Z,83.70
2019-03-29T21:37:48.409Z,83.50
2019-03-29T21:42:52.969Z,85.10
2019-03-29T21:48:04.884Z,85.40
2019-03-29T21:53:03.984Z,88.30
2019-03-29T21:58:09.040Z,87.10
2019-03-29T22:03:13.638Z,88.50
2019-03-29T22:08:18.230Z,90.20
2019-03-29T22:13:22.718Z,87.50
2019-03-29T22:18:37.403Z,90.00
2019-03-29T22:23:33.608Z,88.90
2019-03-29T22:28:38.086Z,90.40
2019-03-29T22:33:42.481Z,88.40
2019-03-29T22:38:47.193Z,87.90
2019-03-29T22:43:51.980Z,91.00
2019-03-29T22:48:55.267Z,87.40
2019-03-29T22:53:59.728Z,86.60
2019-03-29T22:59:04.601Z,86.90
2019-03-29T23:04:09.736Z,85.90
2019-03-29T23:09:14.496Z,86.50
2019-03-29T23:14:17.982Z,88.80
2019-03-29T23:19:22.366Z,87.50
2019-03-29T23:24:26.993Z,86.40
2019-03-29T23:29:30.542Z,84.50
2019-03-29T23:34:35.460Z,84.30
2019-03-29T23:39:40.069Z,84.70
2019-03-29T23:44:43.387Z,84.60
2019-03-29T23:49:47.659Z,87.20
2019-03-29T23:54:52.316Z,88.40
2019-03-29T23:59:55.711Z,87.50
